sensor_id;sensor_type;location;lat;lon;timestamp;P1;durP1;ratioP1;P2;durP2;ratioP2
44456;SDS011;30159;49.316;8.558;2023-02-28T00:01:27;1.50;;;1.40;;
44456;SDS011;30159;49.316;8.558;2023-02-28T00:03:54;1.90;;;1.50;;
44456;SDS011;30159;49.316;8.558;2023-02-28T00:06:20;1.60;;;1.50;;
44456;SDS011;30159;49.316;8.558;2023-02-28T00:08:47;1.53;;;1.43;;
44456;SDS011;30159;49.316;8.558;2023-02-28T00:11:14;2.13;;;1.40;;
44456;SDS011;30159;49.316;8.558;2023-02-28T00:13:42;2.93;;;1.57;;
44456;SDS011;30159;49.316;8.558;2023-02-28T00:16:13;1.70;;;1.37;;
44456;SDS011;30159;49.316;8.558;2023-02-28T00:18:41;2.40;;;1.40;;
44456;SDS011;30159;49.316;8.558;2023-02-28T00:21:08;1.60;;;1.47;;
44456;SDS011;30159;49.316;8.558;2023-02-28T00:23:35;2.30;;;1.70;;
44456;SDS011;30159;49.316;8.558;2023-02-28T00:26:02;1.90;;;1.40;;
44456;SDS011;30159;49.316;8.558;2023-02-28T00:28:29;2.90;;;1.30;;
44456;SDS011;30159;49.316;8.558;2023-02-28T00:30:56;1.97;;;1.87;;
44456;SDS011;30159;49.316;8.558;2023-02-28T00:33:26;2.47;;;1.60;;
44456;SDS011;30159;49.316;8.558;2023-02-28T00:36:00;2.10;;;1.50;;
44456;SDS011;30159;49.316;8.558;2023-02-28T00:38:28;1.67;;;1.57;;
44456;SDS011;30159;49.316;8.558;2023-02-28T00:40:55;2.30;;;1.90;;
44456;SDS011;30159;49.316;8.558;2023-02-28T00:43:21;3.73;;;1.73;;
44456;SDS011;30159;49.316;8.558;2023-02-28T00:45:48;2.50;;;1.37;;
44456;SDS011;30159;49.316;8.558;2023-02-28T00:48:14;2.10;;;1.90;;
44456;SDS011;30159;49.316;8.558;2023-02-28T00:50:42;2.53;;;1.87;;
44456;SDS011;30159;49.316;8.558;2023-02-28T00:53:09;1.60;;;1.50;;
44456;SDS011;30159;49.316;8.558;2023-02-28T00:55:35;2.60;;;1.63;;
44456;SDS011;30159;49.316;8.558;2023-02-28T00:58:01;2.30;;;1.40;;
44456;SDS011;30159;49.316;8.558;2023-02-28T01:00:28;3.23;;;1.30;;
44456;SDS011;30159;49.316;8.558;2023-02-28T01:02:55;1.20;;;1.10;;
44456;SDS011;30159;49.316;8.558;2023-02-28T01:05:21;1.43;;;1.33;;
44456;SDS011;30159;49.316;8.558;2023-02-28T01:07:49;1.50;;;1.40;;
44456;SDS011;30159;49.316;8.558;2023-02-28T01:10:16;1.80;;;1.63;;
44456;SDS011;30159;49.316;8.558;2023-02-28T01:12:42;1.60;;;1.30;;
44456;SDS011;30159;49.316;8.558;2023-02-28T01:15:10;1.43;;;1.30;;
44456;SDS011;30159;49.316;8.558;2023-02-28T01:17:37;2.03;;;1.10;;
44456;SDS011;30159;49.316;8.558;2023-02-28T01:20:03;1.97;;;1.40;;
44456;SDS011;30159;49.316;8.558;2023-02-28T01:22:31;1.23;;;1.13;;
44456;SDS011;30159;49.316;8.558;2023-02-28T01:24:58;1.77;;;1.43;;
44456;SDS011;30159;49.316;8.558;2023-02-28T01:27:25;1.70;;;1.50;;
44456;SDS011;30159;49.316;8.558;2023-02-28T01:29:52;1.53;;;1.43;;
44456;SDS011;30159;49.316;8.558;2023-02-28T01:32:18;2.80;;;1.60;;
44456;SDS011;30159;49.316;8.558;2023-02-28T01:34:45;1.40;;;1.30;;
44456;SDS011;30159;49.316;8.558;2023-02-28T01:37:11;1.70;;;1.50;;
44456;SDS011;30159;49.316;8.558;2023-02-28T01:39:38;1.37;;;1.27;;
44456;SDS011;30159;49.316;8.558;2023-02-28T01:42:07;2.63;;;1.30;;
44456;SDS011;30159;49.316;8.558;2023-02-28T01:47:22;3.20;;;1.47;;
44456;SDS011;30159;49.316;8.558;2023-02-28T01:49:51;2.80;;;1.60;;
44456;SDS011;30159;49.316;8.558;2023-02-28T01:52:19;1.50;;;1.37;;
44456;SDS011;30159;49.316;8.558;2023-02-28T01:54:46;1.90;;;1.50;;
44456;SDS011;30159;49.316;8.558;2023-02-28T01:57:18;1.60;;;1.40;;
44456;SDS011;30159;49.316;8.558;2023-02-28T01:59:49;1.57;;;1.10;;
44456;SDS011;30159;49.316;8.558;2023-02-28T02:02:20;1.30;;;1.20;;
44456;SDS011;30159;49.316;8.558;2023-02-28T02:04:50;1.40;;;1.30;;
44456;SDS011;30159;49.316;8.558;2023-02-28T02:07:20;2.10;;;2.00;;
44456;SDS011;30159;49.316;8.558;2023-02-28T02:09:48;1.30;;;1.20;;
44456;SDS011;30159;49.316;8.558;2023-02-28T02:12:18;1.80;;;1.70;;
44456;SDS011;30159;49.316;8.558;2023-02-28T02:14:58;1.80;;;1.43;;
44456;SDS011;30159;49.316;8.558;2023-02-28T02:17:31;1.40;;;1.30;;
44456;SDS011;30159;49.316;8.558;2023-02-28T02:20:16;1.87;;;1.30;;
44456;SDS011;30159;49.316;8.558;2023-02-28T02:23:32;3.13;;;1.27;;
44456;SDS011;30159;49.316;8.558;2023-02-28T02:32:51;2.70;;;1.67;;
44456;SDS011;30159;49.316;8.558;2023-02-28T02:35:31;1.57;;;1.33;;
44456;SDS011;30159;49.316;8.558;2023-02-28T02:38:07;2.47;;;1.30;;
44456;SDS011;30159;49.316;8.558;2023-02-28T02:40:38;3.73;;;1.60;;
44456;SDS011;30159;49.316;8.558;2023-02-28T02:43:11;2.20;;;2.00;;
44456;SDS011;30159;49.316;8.558;2023-02-28T02:45:43;3.67;;;1.57;;
44456;SDS011;30159;49.316;8.558;2023-02-28T02:48:16;1.97;;;1.50;;
44456;SDS011;30159;49.316;8.558;2023-02-28T02:50:48;3.63;;;2.00;;
44456;SDS011;30159;49.316;8.558;2023-02-28T02:53:17;5.37;;;2.20;;
44456;SDS011;30159;49.316;8.558;2023-02-28T02:55:48;3.50;;;1.70;;
44456;SDS011;30159;49.316;8.558;2023-02-28T02:58:20;2.70;;;1.80;;
44456;SDS011;30159;49.316;8.558;2023-02-28T03:00:52;1.80;;;1.70;;
44456;SDS011;30159;49.316;8.558;2023-02-28T03:03:21;1.87;;;1.60;;
44456;SDS011;30159;49.316;8.558;2023-02-28T03:05:56;1.40;;;1.30;;
44456;SDS011;30159;49.316;8.558;2023-02-28T03:08:24;2.83;;;2.53;;
44456;SDS011;30159;49.316;8.558;2023-02-28T03:10:54;2.50;;;1.80;;
44456;SDS011;30159;49.316;8.558;2023-02-28T03:16:36;2.20;;;1.57;;
44456;SDS011;30159;49.316;8.558;2023-02-28T03:19:24;2.87;;;1.90;;
44456;SDS011;30159;49.316;8.558;2023-02-28T03:22:08;2.10;;;1.77;;
44456;SDS011;30159;49.316;8.558;2023-02-28T03:24:43;1.70;;;1.57;;
44456;SDS011;30159;49.316;8.558;2023-02-28T03:27:17;2.43;;;2.03;;
44456;SDS011;30159;49.316;8.558;2023-02-28T03:29:50;2.33;;;1.70;;
44456;SDS011;30159;49.316;8.558;2023-02-28T03:32:21;3.97;;;2.17;;
44456;SDS011;30159;49.316;8.558;2023-02-28T03:34:54;2.37;;;1.60;;
44456;SDS011;30159;49.316;8.558;2023-02-28T03:37:30;2.50;;;2.17;;
44456;SDS011;30159;49.316;8.558;2023-02-28T03:40:02;1.93;;;1.67;;
44456;SDS011;30159;49.316;8.558;2023-02-28T03:42:34;2.00;;;1.90;;
44456;SDS011;30159;49.316;8.558;2023-02-28T03:45:04;3.30;;;1.97;;
44456;SDS011;30159;49.316;8.558;2023-02-28T03:47:35;2.50;;;2.30;;
44456;SDS011;30159;49.316;8.558;2023-02-28T03:50:06;2.20;;;2.10;;
44456;SDS011;30159;49.316;8.558;2023-02-28T03:52:38;4.10;;;3.30;;
44456;SDS011;30159;49.316;8.558;2023-02-28T03:55:12;2.73;;;2.53;;
44456;SDS011;30159;49.316;8.558;2023-02-28T03:57:42;6.50;;;3.93;;
44456;SDS011;30159;49.316;8.558;2023-02-28T04:00:17;6.67;;;4.27;;
44456;SDS011;30159;49.316;8.558;2023-02-28T04:02:46;3.50;;;2.73;;
44456;SDS011;30159;49.316;8.558;2023-02-28T04:05:17;5.27;;;3.37;;
44456;SDS011;30159;49.316;8.558;2023-02-28T04:07:45;4.70;;;3.87;;
44456;SDS011;30159;49.316;8.558;2023-02-28T04:10:13;8.67;;;5.10;;
44456;SDS011;30159;49.316;8.558;2023-02-28T04:12:41;3.00;;;2.53;;
44456;SDS011;30159;49.316;8.558;2023-02-28T04:15:08;2.40;;;2.13;;
44456;SDS011;30159;49.316;8.558;2023-02-28T04:17:35;7.97;;;4.97;;
44456;SDS011;30159;49.316;8.558;2023-02-28T04:20:02;5.10;;;3.53;;
44456;SDS011;30159;49.316;8.558;2023-02-28T04:22:34;9.10;;;5.23;;
44456;SDS011;30159;49.316;8.558;2023-02-28T04:25:02;6.13;;;4.13;;
44456;SDS011;30159;49.316;8.558;2023-02-28T04:27:30;5.60;;;5.03;;
44456;SDS011;30159;49.316;8.558;2023-02-28T04:29:57;3.90;;;3.40;;
44456;SDS011;30159;49.316;8.558;2023-02-28T04:32:23;8.63;;;3.73;;
44456;SDS011;30159;49.316;8.558;2023-02-28T04:34:50;6.30;;;4.63;;
44456;SDS011;30159;49.316;8.558;2023-02-28T04:37:16;5.20;;;4.27;;
44456;SDS011;30159;49.316;8.558;2023-02-28T04:39:43;5.07;;;3.47;;
44456;SDS011;30159;49.316;8.558;2023-02-28T04:42:11;3.90;;;3.60;;
44456;SDS011;30159;49.316;8.558;2023-02-28T04:44:38;5.23;;;4.73;;
44456;SDS011;30159;49.316;8.558;2023-02-28T04:47:05;5.53;;;3.80;;
44456;SDS011;30159;49.316;8.558;2023-02-28T04:49:32;13.10;;;5.13;;
44456;SDS011;30159;49.316;8.558;2023-02-28T04:51:58;4.67;;;4.23;;
44456;SDS011;30159;49.316;8.558;2023-02-28T04:54:25;5.77;;;4.10;;
44456;SDS011;30159;49.316;8.558;2023-02-28T04:56:51;5.23;;;4.67;;
44456;SDS011;30159;49.316;8.558;2023-02-28T04:59:19;5.47;;;3.50;;
44456;SDS011;30159;49.316;8.558;2023-02-28T05:01:46;5.97;;;3.70;;
44456;SDS011;30159;49.316;8.558;2023-02-28T05:04:14;4.50;;;4.20;;
44456;SDS011;30159;49.316;8.558;2023-02-28T05:06:41;3.40;;;3.10;;
44456;SDS011;30159;49.316;8.558;2023-02-28T05:09:08;3.60;;;3.30;;
44456;SDS011;30159;49.316;8.558;2023-02-28T05:11:36;3.80;;;3.13;;
44456;SDS011;30159;49.316;8.558;2023-02-28T05:14:05;4.20;;;2.97;;
44456;SDS011;30159;49.316;8.558;2023-02-28T05:16:34;3.90;;;3.03;;
44456;SDS011;30159;49.316;8.558;2023-02-28T05:19:00;2.80;;;2.43;;
44456;SDS011;30159;49.316;8.558;2023-02-28T05:21:28;4.23;;;3.33;;
44456;SDS011;30159;49.316;8.558;2023-02-28T05:23:57;4.50;;;3.00;;
44456;SDS011;30159;49.316;8.558;2023-02-28T05:26:25;5.30;;;2.93;;
44456;SDS011;30159;49.316;8.558;2023-02-28T05:28:52;3.23;;;2.83;;
44456;SDS011;30159;49.316;8.558;2023-02-28T05:31:19;4.30;;;2.93;;
44456;SDS011;30159;49.316;8.558;2023-02-28T05:33:47;2.30;;;2.13;;
44456;SDS011;30159;49.316;8.558;2023-02-28T05:36:14;3.43;;;3.00;;
44456;SDS011;30159;49.316;8.558;2023-02-28T05:38:40;3.07;;;2.60;;
44456;SDS011;30159;49.316;8.558;2023-02-28T05:41:07;4.03;;;2.23;;
44456;SDS011;30159;49.316;8.558;2023-02-28T05:43:34;3.53;;;2.30;;
44456;SDS011;30159;49.316;8.558;2023-02-28T05:46:02;3.23;;;2.50;;
44456;SDS011;30159;49.316;8.558;2023-02-28T05:48:30;3.10;;;2.20;;
44456;SDS011;30159;49.316;8.558;2023-02-28T05:50:58;3.43;;;2.30;;
44456;SDS011;30159;49.316;8.558;2023-02-28T05:53:24;2.50;;;2.30;;
44456;SDS011;30159;49.316;8.558;2023-02-28T05:55:52;3.20;;;2.00;;
44456;SDS011;30159;49.316;8.558;2023-02-28T05:58:18;1.90;;;1.80;;
44456;SDS011;30159;49.316;8.558;2023-02-28T06:00:45;2.30;;;1.90;;
44456;SDS011;30159;49.316;8.558;2023-02-28T06:03:11;2.90;;;2.70;;
44456;SDS011;30159;49.316;8.558;2023-02-28T06:05:38;4.50;;;2.23;;
44456;SDS011;30159;49.316;8.558;2023-02-28T06:08:06;2.20;;;2.10;;
44456;SDS011;30159;49.316;8.558;2023-02-28T06:10:33;3.00;;;2.70;;
44456;SDS011;30159;49.316;8.558;2023-02-28T06:13:00;2.20;;;2.00;;
44456;SDS011;30159;49.316;8.558;2023-02-28T06:15:27;3.20;;;2.70;;
44456;SDS011;30159;49.316;8.558;2023-02-28T06:17:55;3.00;;;2.03;;
44456;SDS011;30159;49.316;8.558;2023-02-28T06:20:22;2.40;;;2.17;;
44456;SDS011;30159;49.316;8.558;2023-02-28T06:22:49;3.03;;;2.20;;
44456;SDS011;30159;49.316;8.558;2023-02-28T06:25:17;2.30;;;2.10;;
44456;SDS011;30159;49.316;8.558;2023-02-28T06:27:44;3.33;;;2.00;;
44456;SDS011;30159;49.316;8.558;2023-02-28T06:30:11;1.40;;;1.30;;
44456;SDS011;30159;49.316;8.558;2023-02-28T06:32:38;2.30;;;2.10;;
44456;SDS011;30159;49.316;8.558;2023-02-28T06:35:05;4.93;;;2.40;;
44456;SDS011;30159;49.316;8.558;2023-02-28T06:37:32;3.00;;;2.00;;
44456;SDS011;30159;49.316;8.558;2023-02-28T06:39:58;2.50;;;1.90;;
44456;SDS011;30159;49.316;8.558;2023-02-28T06:42:26;3.70;;;2.13;;
44456;SDS011;30159;49.316;8.558;2023-02-28T06:44:55;3.63;;;2.60;;
44456;SDS011;30159;49.316;8.558;2023-02-28T06:47:22;2.90;;;2.70;;
44456;SDS011;30159;49.316;8.558;2023-02-28T06:49:49;3.90;;;2.30;;
44456;SDS011;30159;49.316;8.558;2023-02-28T06:52:16;3.53;;;3.13;;
44456;SDS011;30159;49.316;8.558;2023-02-28T06:54:42;3.70;;;2.57;;
44456;SDS011;30159;49.316;8.558;2023-02-28T06:57:09;3.80;;;2.90;;
44456;SDS011;30159;49.316;8.558;2023-02-28T06:59:37;3.27;;;2.73;;
44456;SDS011;30159;49.316;8.558;2023-02-28T07:02:04;3.77;;;2.97;;
44456;SDS011;30159;49.316;8.558;2023-02-28T07:04:31;4.00;;;1.93;;
44456;SDS011;30159;49.316;8.558;2023-02-28T07:06:58;4.53;;;3.20;;
44456;SDS011;30159;49.316;8.558;2023-02-28T07:09:24;4.33;;;3.50;;
44456;SDS011;30159;49.316;8.558;2023-02-28T07:11:54;3.90;;;3.50;;
44456;SDS011;30159;49.316;8.558;2023-02-28T07:14:21;3.20;;;2.47;;
44456;SDS011;30159;49.316;8.558;2023-02-28T07:16:49;3.20;;;2.90;;
44456;SDS011;30159;49.316;8.558;2023-02-28T07:19:15;4.93;;;3.13;;
44456;SDS011;30159;49.316;8.558;2023-02-28T07:21:41;3.47;;;2.37;;
44456;SDS011;30159;49.316;8.558;2023-02-28T07:24:08;2.47;;;2.27;;
44456;SDS011;30159;49.316;8.558;2023-02-28T07:26:35;3.93;;;2.90;;
44456;SDS011;30159;49.316;8.558;2023-02-28T07:29:01;2.80;;;1.80;;
44456;SDS011;30159;49.316;8.558;2023-02-28T07:31:28;1.83;;;1.73;;
44456;SDS011;30159;49.316;8.558;2023-02-28T07:33:56;9.40;;;3.73;;
44456;SDS011;30159;49.316;8.558;2023-02-28T07:36:23;2.43;;;2.23;;
44456;SDS011;30159;49.316;8.558;2023-02-28T07:38:49;6.20;;;4.00;;
44456;SDS011;30159;49.316;8.558;2023-02-28T07:41:16;1.67;;;1.57;;
44456;SDS011;30159;49.316;8.558;2023-02-28T07:43:43;3.70;;;3.40;;
44456;SDS011;30159;49.316;8.558;2023-02-28T07:46:11;3.40;;;3.10;;
44456;SDS011;30159;49.316;8.558;2023-02-28T07:48:40;3.33;;;2.70;;
44456;SDS011;30159;49.316;8.558;2023-02-28T07:51:08;1.87;;;1.67;;
44456;SDS011;30159;49.316;8.558;2023-02-28T07:53:35;3.50;;;2.93;;
44456;SDS011;30159;49.316;8.558;2023-02-28T07:56:01;6.57;;;2.40;;
44456;SDS011;30159;49.316;8.558;2023-02-28T07:58:28;2.80;;;2.10;;
44456;SDS011;30159;49.316;8.558;2023-02-28T08:00:56;3.60;;;3.33;;
44456;SDS011;30159;49.316;8.558;2023-02-28T08:03:23;11.00;;;3.27;;
44456;SDS011;30159;49.316;8.558;2023-02-28T08:05:50;4.97;;;3.33;;
44456;SDS011;30159;49.316;8.558;2023-02-28T08:08:19;6.90;;;3.60;;
44456;SDS011;30159;49.316;8.558;2023-02-28T08:10:46;4.17;;;3.77;;
44456;SDS011;30159;49.316;8.558;2023-02-28T08:13:12;4.73;;;2.73;;
44456;SDS011;30159;49.316;8.558;2023-02-28T08:15:40;5.97;;;4.67;;
44456;SDS011;30159;49.316;8.558;2023-02-28T08:18:06;4.43;;;4.10;;
44456;SDS011;30159;49.316;8.558;2023-02-28T08:20:33;4.10;;;3.70;;
44456;SDS011;30159;49.316;8.558;2023-02-28T08:22:59;8.73;;;4.17;;
44456;SDS011;30159;49.316;8.558;2023-02-28T08:25:27;2.20;;;2.00;;
44456;SDS011;30159;49.316;8.558;2023-02-28T08:27:54;4.97;;;4.33;;
44456;SDS011;30159;49.316;8.558;2023-02-28T08:30:20;5.20;;;3.40;;
44456;SDS011;30159;49.316;8.558;2023-02-28T08:32:47;7.07;;;4.10;;
44456;SDS011;30159;49.316;8.558;2023-02-28T08:35:14;15.57;;;4.37;;
44456;SDS011;30159;49.316;8.558;2023-02-28T08:37:40;4.40;;;3.30;;
44456;SDS011;30159;49.316;8.558;2023-02-28T08:40:07;3.23;;;2.80;;
44456;SDS011;30159;49.316;8.558;2023-02-28T08:42:36;6.10;;;4.00;;
44456;SDS011;30159;49.316;8.558;2023-02-28T08:45:03;6.07;;;3.30;;
44456;SDS011;30159;49.316;8.558;2023-02-28T08:47:30;5.97;;;3.77;;
44456;SDS011;30159;49.316;8.558;2023-02-28T08:49:57;4.23;;;3.30;;
44456;SDS011;30159;49.316;8.558;2023-02-28T08:52:24;3.00;;;2.70;;
44456;SDS011;30159;49.316;8.558;2023-02-28T08:54:50;4.73;;;2.93;;
44456;SDS011;30159;49.316;8.558;2023-02-28T08:57:17;6.23;;;4.53;;
44456;SDS011;30159;49.316;8.558;2023-02-28T08:59:45;7.53;;;3.40;;
44456;SDS011;30159;49.316;8.558;2023-02-28T09:02:12;5.60;;;4.20;;
44456;SDS011;30159;49.316;8.558;2023-02-28T09:04:39;2.83;;;2.63;;
44456;SDS011;30159;49.316;8.558;2023-02-28T09:07:05;3.20;;;2.90;;
44456;SDS011;30159;49.316;8.558;2023-02-28T09:09:32;3.00;;;2.70;;
44456;SDS011;30159;49.316;8.558;2023-02-28T09:11:59;2.63;;;2.43;;
44456;SDS011;30159;49.316;8.558;2023-02-28T09:14:31;7.80;;;4.03;;
44456;SDS011;30159;49.316;8.558;2023-02-28T09:16:59;4.60;;;3.87;;
44456;SDS011;30159;49.316;8.558;2023-02-28T09:19:26;4.50;;;3.60;;
44456;SDS011;30159;49.316;8.558;2023-02-28T09:21:52;6.07;;;3.40;;
44456;SDS011;30159;49.316;8.558;2023-02-28T09:24:19;5.73;;;3.80;;
44456;SDS011;30159;49.316;8.558;2023-02-28T09:26:45;5.73;;;3.67;;
44456;SDS011;30159;49.316;8.558;2023-02-28T09:29:12;3.90;;;3.50;;
44456;SDS011;30159;49.316;8.558;2023-02-28T09:31:39;3.07;;;2.77;;
44456;SDS011;30159;49.316;8.558;2023-02-28T09:34:07;5.70;;;4.17;;
44456;SDS011;30159;49.316;8.558;2023-02-28T09:36:34;4.00;;;3.60;;
44456;SDS011;30159;49.316;8.558;2023-02-28T09:39:03;5.80;;;4.07;;
44456;SDS011;30159;49.316;8.558;2023-02-28T09:41:31;5.27;;;4.03;;
44456;SDS011;30159;49.316;8.558;2023-02-28T09:44:05;7.33;;;4.20;;
44456;SDS011;30159;49.316;8.558;2023-02-28T09:46:39;6.60;;;3.90;;
44456;SDS011;30159;49.316;8.558;2023-02-28T09:49:12;6.10;;;5.10;;
44456;SDS011;30159;49.316;8.558;2023-02-28T09:51:46;4.90;;;4.50;;
44456;SDS011;30159;49.316;8.558;2023-02-28T09:54:17;3.67;;;3.30;;
44456;SDS011;30159;49.316;8.558;2023-02-28T09:56:48;4.47;;;3.60;;
44456;SDS011;30159;49.316;8.558;2023-02-28T09:59:24;4.27;;;3.57;;
44456;SDS011;30159;49.316;8.558;2023-02-28T10:02:15;6.30;;;3.93;;
44456;SDS011;30159;49.316;8.558;2023-02-28T10:04:50;4.67;;;4.03;;
44456;SDS011;30159;49.316;8.558;2023-02-28T10:07:23;5.63;;;2.77;;
44456;SDS011;30159;49.316;8.558;2023-02-28T10:10:05;5.77;;;3.50;;
44456;SDS011;30159;49.316;8.558;2023-02-28T10:12:43;6.70;;;4.30;;
44456;SDS011;30159;49.316;8.558;2023-02-28T10:15:13;5.80;;;4.03;;
44456;SDS011;30159;49.316;8.558;2023-02-28T10:17:42;4.17;;;3.77;;
44456;SDS011;30159;49.316;8.558;2023-02-28T10:20:13;6.57;;;4.70;;
44456;SDS011;30159;49.316;8.558;2023-02-28T10:22:49;4.10;;;3.70;;
44456;SDS011;30159;49.316;8.558;2023-02-28T10:25:20;9.50;;;4.63;;
44456;SDS011;30159;49.316;8.558;2023-02-28T10:27:48;4.80;;;3.47;;
44456;SDS011;30159;49.316;8.558;2023-02-28T10:30:16;6.07;;;3.50;;
44456;SDS011;30159;49.316;8.558;2023-02-28T10:32:44;7.43;;;5.53;;
44456;SDS011;30159;49.316;8.558;2023-02-28T10:35:18;4.40;;;3.70;;
44456;SDS011;30159;49.316;8.558;2023-02-28T10:37:46;5.17;;;3.20;;
44456;SDS011;30159;49.316;8.558;2023-02-28T10:40:25;5.63;;;3.77;;
44456;SDS011;30159;49.316;8.558;2023-02-28T10:42:58;4.30;;;3.90;;
44456;SDS011;30159;49.316;8.558;2023-02-28T10:45:27;5.50;;;4.77;;
44456;SDS011;30159;49.316;8.558;2023-02-28T10:47:56;2.90;;;2.30;;
44456;SDS011;30159;49.316;8.558;2023-02-28T10:50:29;6.53;;;4.20;;
44456;SDS011;30159;49.316;8.558;2023-02-28T10:53:07;4.33;;;3.23;;
44456;SDS011;30159;49.316;8.558;2023-02-28T10:55:40;4.50;;;2.60;;
44456;SDS011;30159;49.316;8.558;2023-02-28T10:58:15;6.67;;;3.37;;
44456;SDS011;30159;49.316;8.558;2023-02-28T11:00:47;7.13;;;4.70;;
44456;SDS011;30159;49.316;8.558;2023-02-28T11:03:22;9.00;;;5.10;;
44456;SDS011;30159;49.316;8.558;2023-02-28T11:05:52;8.23;;;4.70;;
44456;SDS011;30159;49.316;8.558;2023-02-28T11:08:18;6.67;;;5.10;;
44456;SDS011;30159;49.316;8.558;2023-02-28T11:10:46;7.20;;;3.50;;
44456;SDS011;30159;49.316;8.558;2023-02-28T11:13:16;8.93;;;6.27;;
44456;SDS011;30159;49.316;8.558;2023-02-28T11:15:49;6.13;;;4.60;;
44456;SDS011;30159;49.316;8.558;2023-02-28T11:18:20;7.80;;;4.50;;
44456;SDS011;30159;49.316;8.558;2023-02-28T11:20:52;10.57;;;6.20;;
44456;SDS011;30159;49.316;8.558;2023-02-28T11:23:22;5.23;;;3.77;;
44456;SDS011;30159;49.316;8.558;2023-02-28T11:25:54;4.80;;;4.33;;
44456;SDS011;30159;49.316;8.558;2023-02-28T11:28:25;5.93;;;4.70;;
44456;SDS011;30159;49.316;8.558;2023-02-28T11:31:01;5.43;;;4.93;;
44456;SDS011;30159;49.316;8.558;2023-02-28T11:33:30;8.50;;;4.63;;
44456;SDS011;30159;49.316;8.558;2023-02-28T11:36:00;8.03;;;4.40;;
44456;SDS011;30159;49.316;8.558;2023-02-28T11:38:37;9.43;;;6.17;;
44456;SDS011;30159;49.316;8.558;2023-02-28T11:41:15;8.30;;;5.70;;
44456;SDS011;30159;49.316;8.558;2023-02-28T11:44:07;8.93;;;6.13;;
44456;SDS011;30159;49.316;8.558;2023-02-28T11:46:44;11.83;;;6.10;;
44456;SDS011;30159;49.316;8.558;2023-02-28T11:49:19;4.57;;;4.13;;
44456;SDS011;30159;49.316;8.558;2023-02-28T11:51:56;5.17;;;4.53;;
44456;SDS011;30159;49.316;8.558;2023-02-28T11:54:44;11.30;;;4.70;;
44456;SDS011;30159;49.316;8.558;2023-02-28T11:57:36;6.90;;;4.23;;
44456;SDS011;30159;49.316;8.558;2023-02-28T12:00:19;8.13;;;5.93;;
44456;SDS011;30159;49.316;8.558;2023-02-28T12:03:00;8.93;;;5.67;;
44456;SDS011;30159;49.316;8.558;2023-02-28T12:05:42;7.50;;;5.20;;
44456;SDS011;30159;49.316;8.558;2023-02-28T12:08:18;7.50;;;5.60;;
44456;SDS011;30159;49.316;8.558;2023-02-28T12:10:57;5.57;;;5.03;;
44456;SDS011;30159;49.316;8.558;2023-02-28T12:13:34;7.50;;;4.80;;
44456;SDS011;30159;49.316;8.558;2023-02-28T12:16:23;8.00;;;4.57;;
44456;SDS011;30159;49.316;8.558;2023-02-28T12:19:19;9.93;;;5.63;;
44456;SDS011;30159;49.316;8.558;2023-02-28T12:21:51;5.00;;;4.53;;
44456;SDS011;30159;49.316;8.558;2023-02-28T12:24:38;6.10;;;4.03;;
44456;SDS011;30159;49.316;8.558;2023-02-28T12:27:29;7.37;;;5.37;;
44456;SDS011;30159;49.316;8.558;2023-02-28T12:30:00;8.63;;;6.13;;
44456;SDS011;30159;49.316;8.558;2023-02-28T12:32:32;10.10;;;6.23;;
44456;SDS011;30159;49.316;8.558;2023-02-28T12:35:03;3.40;;;3.07;;
44456;SDS011;30159;49.316;8.558;2023-02-28T12:37:37;5.60;;;4.13;;
44456;SDS011;30159;49.316;8.558;2023-02-28T12:40:11;12.23;;;5.83;;
44456;SDS011;30159;49.316;8.558;2023-02-28T12:42:42;9.10;;;5.53;;
44456;SDS011;30159;49.316;8.558;2023-02-28T12:45:13;7.40;;;5.30;;
44456;SDS011;30159;49.316;8.558;2023-02-28T12:47:46;9.00;;;6.60;;
44456;SDS011;30159;49.316;8.558;2023-02-28T12:50:16;14.87;;;6.10;;
44456;SDS011;30159;49.316;8.558;2023-02-28T12:52:46;7.40;;;5.90;;
44456;SDS011;30159;49.316;8.558;2023-02-28T12:55:21;5.40;;;3.83;;
44456;SDS011;30159;49.316;8.558;2023-02-28T12:57:55;8.00;;;5.20;;
44456;SDS011;30159;49.316;8.558;2023-02-28T13:00:32;12.37;;;5.50;;
44456;SDS011;30159;49.316;8.558;2023-02-28T13:03:21;5.17;;;4.57;;
44456;SDS011;30159;49.316;8.558;2023-02-28T13:06:19;6.70;;;5.30;;
44456;SDS011;30159;49.316;8.558;2023-02-28T13:09:02;11.00;;;6.30;;
44456;SDS011;30159;49.316;8.558;2023-02-28T13:11:39;7.70;;;5.13;;
44456;SDS011;30159;49.316;8.558;2023-02-28T13:14:16;7.13;;;5.70;;
44456;SDS011;30159;49.316;8.558;2023-02-28T13:16:51;10.53;;;5.83;;
44456;SDS011;30159;49.316;8.558;2023-02-28T13:19:25;7.90;;;5.00;;
44456;SDS011;30159;49.316;8.558;2023-02-28T13:21:54;6.00;;;3.60;;
44456;SDS011;30159;49.316;8.558;2023-02-28T13:24:42;7.60;;;5.80;;
44456;SDS011;30159;49.316;8.558;2023-02-28T13:27:21;6.53;;;3.90;;
44456;SDS011;30159;49.316;8.558;2023-02-28T13:29:50;6.13;;;5.43;;
44456;SDS011;30159;49.316;8.558;2023-02-28T13:32:32;6.53;;;5.93;;
44456;SDS011;30159;49.316;8.558;2023-02-28T13:44:25;9.20;;;6.43;;
44456;SDS011;30159;49.316;8.558;2023-02-28T13:49:47;6.90;;;5.70;;
44456;SDS011;30159;49.316;8.558;2023-02-28T13:52:15;6.47;;;5.17;;
44456;SDS011;30159;49.316;8.558;2023-02-28T13:57:48;7.80;;;4.67;;
44456;SDS011;30159;49.316;8.558;2023-02-28T14:00:33;7.67;;;5.73;;
44456;SDS011;30159;49.316;8.558;2023-02-28T14:03:18;6.03;;;5.00;;
44456;SDS011;30159;49.316;8.558;2023-02-28T14:06:14;7.77;;;5.80;;
44456;SDS011;30159;49.316;8.558;2023-02-28T14:08:47;8.63;;;6.30;;
44456;SDS011;30159;49.316;8.558;2023-02-28T14:11:24;8.57;;;6.17;;
44456;SDS011;30159;49.316;8.558;2023-02-28T14:13:53;6.30;;;5.00;;
44456;SDS011;30159;49.316;8.558;2023-02-28T14:16:22;12.20;;;5.87;;
44456;SDS011;30159;49.316;8.558;2023-02-28T14:18:55;6.90;;;5.67;;
44456;SDS011;30159;49.316;8.558;2023-02-28T14:21:24;5.80;;;5.20;;
44456;SDS011;30159;49.316;8.558;2023-02-28T14:24:03;5.37;;;4.50;;
44456;SDS011;30159;49.316;8.558;2023-02-28T14:26:56;6.30;;;5.53;;
44456;SDS011;30159;49.316;8.558;2023-02-28T14:29:53;8.90;;;6.23;;
44456;SDS011;30159;49.316;8.558;2023-02-28T14:32:35;6.73;;;5.47;;
44456;SDS011;30159;49.316;8.558;2023-02-28T14:35:13;6.10;;;5.53;;
44456;SDS011;30159;49.316;8.558;2023-02-28T14:37:47;5.60;;;4.43;;
44456;SDS011;30159;49.316;8.558;2023-02-28T14:40:14;7.53;;;5.10;;
44456;SDS011;30159;49.316;8.558;2023-02-28T14:42:46;6.30;;;5.70;;
44456;SDS011;30159;49.316;8.558;2023-02-28T14:45:20;8.03;;;5.87;;
44456;SDS011;30159;49.316;8.558;2023-02-28T14:47:49;8.77;;;5.90;;
44456;SDS011;30159;49.316;8.558;2023-02-28T14:50:18;6.17;;;4.80;;
44456;SDS011;30159;49.316;8.558;2023-02-28T14:52:47;4.87;;;4.37;;
44456;SDS011;30159;49.316;8.558;2023-02-28T14:55:16;7.27;;;5.70;;
44456;SDS011;30159;49.316;8.558;2023-02-28T14:57:50;4.83;;;4.27;;
44456;SDS011;30159;49.316;8.558;2023-02-28T15:00:21;6.10;;;4.40;;
44456;SDS011;30159;49.316;8.558;2023-02-28T15:02:51;7.97;;;6.07;;
44456;SDS011;30159;49.316;8.558;2023-02-28T15:05:22;7.93;;;5.10;;
44456;SDS011;30159;49.316;8.558;2023-02-28T15:08:00;5.30;;;4.37;;
44456;SDS011;30159;49.316;8.558;2023-02-28T15:10:29;7.17;;;6.10;;
44456;SDS011;30159;49.316;8.558;2023-02-28T15:12:56;5.80;;;5.20;;
44456;SDS011;30159;49.316;8.558;2023-02-28T15:15:25;7.47;;;5.57;;
44456;SDS011;30159;49.316;8.558;2023-02-28T15:18:03;6.27;;;4.93;;
44456;SDS011;30159;49.316;8.558;2023-02-28T15:20:32;10.73;;;6.60;;
44456;SDS011;30159;49.316;8.558;2023-02-28T15:22:59;12.30;;;6.50;;
44456;SDS011;30159;49.316;8.558;2023-02-28T15:25:26;7.33;;;5.70;;
44456;SDS011;30159;49.316;8.558;2023-02-28T15:27:54;7.10;;;5.80;;
44456;SDS011;30159;49.316;8.558;2023-02-28T15:30:24;8.20;;;5.20;;
44456;SDS011;30159;49.316;8.558;2023-02-28T15:33:05;8.20;;;5.87;;
44456;SDS011;30159;49.316;8.558;2023-02-28T15:35:36;8.27;;;6.03;;
44456;SDS011;30159;49.316;8.558;2023-02-28T15:38:08;8.37;;;5.77;;